Share

Saint Croix, VI

Judith's Fancy (IVICHRIS2) Elev 120 ft | 17.77 °N, 64.75 °W | Change Station

Current weather conditions updated 1 second ago

Scattered Clouds
Scattered Clouds
86.7 °F
Feels Like 114 °F
N
0.0
Wind Variable Wind from North
Gusts 0.0 mph
Sunrise 5:59 AM
Sunset 6:36 PM
Moon Waning Gibbous

Today is forecast to be Warmer than yesterday.

Pressure 30.10 in
Visibility 10.0 miles
Clouds Scattered Clouds 3200 ft
Heat Index 114 °F
Dew Point 86 °F
Humidity 99%
Rainfall 0.00 in
Snow Depth Not available.
UV 9 out of 16
Pollen Not available.
Air Quality Not available.
Flu Activity No Activity
METAR TISX 201453Z 11015G22KT 10SM SCT032 29/21 A3010 RMK AO2 SLP192 60000 T02890211 50004

More Conditions Fewer Conditions

Pressure 30.10 in
Visibility 10.0 miles
Clouds Scattered Clouds 3200 ft
Heat Index 114 °F
Dew Point 86 °F
Humidity 99%
Rainfall 0.00 in
Snow Depth Not available.
UV 9 out of 16
Pollen Not available.
Air Quality Not available.
Flu Activity No Activity
METAR TISX 201453Z 11015G22KT 10SM SCT032 29/21 A3010 RMK AO2 SLP192 60000 T02890211 50004

More Conditions Fewer Conditions

10-Day Weather Forecast

Almanac

Astronomy

Apr. 20, 2014 Rise Set
Actual Time 5:59 AM AST 6:36 PM AST
Civil Twilight 5:36 AM AST 6:58 PM AST
Nautical Twilight 5:10 AM AST 7:24 PM AST
Astronomical Twilight 4:44 AM AST 7:51 PM AST
Moon 11:50 PM AST 10:31 AM AST
Length of Visible Light 13h 21m
Length of Day
12h 37m
Tomorrow will be 0m 56s longer.
Waning Gibbous, 69% of the Moon is Illuminated
Today
Waning Gibbous
Apr 22
Last Quarter
Apr 29
New
May 6
First Quarter
May 14
Full

Community

  • Easter Sunrise
    Easter Sunrise
  • Easter Eve - The Promise - Lake Palestine, TX
    Easter Eve - The Promise - Lake Palestine, TX
  • Happy Easter
    Happy Easter
  • EARLY FOGGY MORNING
    EARLY FOGGY MORNING
  • Easter Greetings
    Easter Greetings

WunderPhotos

Upload Photos

1,703,259 photos uploaded!

WunderBlogs® & News

Nearby

Snow Depth

Station Depth Elevation
No new snow has been reported.

Coastal Water Temperatures

Place Temperature
Lime Tree Bay, VI 81.0 °F
Christiansted Harbor, Virgin Islands 80.1 °F
Magueyes Islands, PR 80.1 °F
Yabucoa Harbor, PR 80.1 °F
Esperanza, PR 81.0 °F
Mayaguez, PR 82.0 °F
Charlotte Amalie, VI 81.0 °F
San Juan, PR 81.0 °F

Earthquake Activity

City Distance Mag. Time & Date
No recent earthquake activity has been reported nearby.
Minimum magnitude displayed is 2.5.

Nearby Weather Stations

Station Location Temp. Heat Index Dew Point Humidity Wind Precip. Elev Updated Type
Judith's Fancy, Christiansted 86.7 °F 114 °F 86 °F 99% North  at  0.0 mph 0.00 in / hr 120 ft 11:55 AM AST Rapid Fire
Catherines Hope, CHRISTIANSTED 84.6 °F 92 °F 74 °F 70% SE  at  16.1 mph 0.00 in / hr 325 ft 11:55 AM AST Rapid Fire

Show More Stations Show Fewer Stations

What do you think?

We're not finished. Please let us know what you like, what you don't like, and what you are still missing.